Terminal Aerodrome Forecast
Issued by NWS

Home | Current Version | Previous Version | Text Only | Print | Product List | Glossary On
Versions: 1 2 3 4 5 6 7 8 9 10 11 12 13 14 15 16 17 18 19 20 21
000
FTAK31 PAFA 011129
TAFAOM
TAF
PAOM 011129Z 0112/0212 07019KT P6SM SCT100
     FM011600 09026G33KT 6SM BR OVC050
     FM011800 09027G34KT 4SM BR OVC050
     FM012000 09032G39KT 1/2SM -RA FG SCT005 OVC015
     FM020800 11025G32KT 6SM -RA BR OVC015=

USA.gov is the U.S. government's official web portal to all federal, state and local government web resources and services.